sensor_id;sensor_type;location;lat;lon;timestamp;temperature;humidity
10583;DHT22;33679;51.218;6.786;2023-02-01T00:02:31;10.00;99.90
10583;DHT22;33679;51.218;6.786;2023-02-01T00:05:26;10.10;99.90
10583;DHT22;33679;51.218;6.786;2023-02-01T00:08:04;10.00;99.90
10583;DHT22;33679;51.218;6.786;2023-02-01T00:10:32;10.00;99.90
10583;DHT22;33679;51.218;6.786;2023-02-01T00:13:05;10.00;99.90
10583;DHT22;33679;51.218;6.786;2023-02-01T00:15:38;10.00;99.90
10583;DHT22;33679;51.218;6.786;2023-02-01T00:18:13;10.00;99.90
10583;DHT22;33679;51.218;6.786;2023-02-01T00:20:46;10.00;99.90
10583;DHT22;33679;51.218;6.786;2023-02-01T00:26:31;10.00;99.90
10583;DHT22;33679;51.218;6.786;2023-02-01T00:29:30;9.90;99.90
10583;DHT22;33679;51.218;6.786;2023-02-01T00:32:30;9.90;99.90
10583;DHT22;33679;51.218;6.786;2023-02-01T00:35:33;9.90;99.90
10583;DHT22;33679;51.218;6.786;2023-02-01T00:38:53;9.90;99.90
10583;DHT22;33679;51.218;6.786;2023-02-01T00:42:04;9.90;99.90
10583;DHT22;33679;51.218;6.786;2023-02-01T00:44:38;9.80;99.90
10583;DHT22;33679;51.218;6.786;2023-02-01T00:47:13;9.90;99.90
10583;DHT22;33679;51.218;6.786;2023-02-01T00:49:46;9.90;99.90
10583;DHT22;33679;51.218;6.786;2023-02-01T00:52:20;9.90;99.90
10583;DHT22;33679;51.218;6.786;2023-02-01T00:54:52;9.90;99.90
10583;DHT22;33679;51.218;6.786;2023-02-01T00:57:31;9.90;99.90
10583;DHT22;33679;51.218;6.786;2023-02-01T01:00:07;9.90;99.90
10583;DHT22;33679;51.218;6.786;2023-02-01T01:02:44;9.80;99.90
10583;DHT22;33679;51.218;6.786;2023-02-01T01:05:19;9.80;99.90
10583;DHT22;33679;51.218;6.786;2023-02-01T01:07:53;9.70;99.90
10583;DHT22;33679;51.218;6.786;2023-02-01T01:10:28;9.70;99.90
10583;DHT22;33679;51.218;6.786;2023-02-01T01:13:01;9.70;99.90
10583;DHT22;33679;51.218;6.786;2023-02-01T01:15:36;9.70;99.90
10583;DHT22;33679;51.218;6.786;2023-02-01T01:18:08;9.80;99.90
10583;DHT22;33679;51.218;6.786;2023-02-01T01:20:44;9.80;99.90
10583;DHT22;33679;51.218;6.786;2023-02-01T01:23:18;9.80;99.90
10583;DHT22;33679;51.218;6.786;2023-02-01T01:26:07;9.80;99.90
10583;DHT22;33679;51.218;6.786;2023-02-01T01:28:40;9.90;99.90
10583;DHT22;33679;51.218;6.786;2023-02-01T01:31:15;9.90;99.90
10583;DHT22;33679;51.218;6.786;2023-02-01T01:33:49;9.90;99.90
10583;DHT22;33679;51.218;6.786;2023-02-01T01:36:23;9.80;99.90
10583;DHT22;33679;51.218;6.786;2023-02-01T01:38:57;9.80;99.90
10583;DHT22;33679;51.218;6.786;2023-02-01T01:41:31;9.80;99.90
10583;DHT22;33679;51.218;6.786;2023-02-01T01:47:16;9.70;99.90
10583;DHT22;33679;51.218;6.786;2023-02-01T01:49:49;9.70;99.90
10583;DHT22;33679;51.218;6.786;2023-02-01T01:52:22;9.70;99.90
10583;DHT22;33679;51.218;6.786;2023-02-01T01:54:58;9.70;99.90
10583;DHT22;33679;51.218;6.786;2023-02-01T01:57:34;9.70;99.90
10583;DHT22;33679;51.218;6.786;2023-02-01T02:00:10;9.70;99.90
10583;DHT22;33679;51.218;6.786;2023-02-01T02:02:52;9.60;99.90
10583;DHT22;33679;51.218;6.786;2023-02-01T02:05:26;9.60;99.90
10583;DHT22;33679;51.218;6.786;2023-02-01T02:08:05;9.60;99.90
10583;DHT22;33679;51.218;6.786;2023-02-01T02:10:41;9.50;99.90
10583;DHT22;33679;51.218;6.786;2023-02-01T02:13:35;9.60;99.90
10583;DHT22;33679;51.218;6.786;2023-02-01T02:19:35;9.50;99.90
10583;DHT22;33679;51.218;6.786;2023-02-01T02:28:51;9.40;99.90
10583;DHT22;33679;51.218;6.786;2023-02-01T02:31:45;9.40;99.90
10583;DHT22;33679;51.218;6.786;2023-02-01T02:34:27;9.30;99.90
10583;DHT22;33679;51.218;6.786;2023-02-01T02:37:10;9.30;99.90
10583;DHT22;33679;51.218;6.786;2023-02-01T02:39:51;9.30;99.90
10583;DHT22;33679;51.218;6.786;2023-02-01T02:42:32;9.20;99.90
10583;DHT22;33679;51.218;6.786;2023-02-01T02:45:28;9.20;99.90
10583;DHT22;33679;51.218;6.786;2023-02-01T02:48:24;9.20;99.90
10583;DHT22;33679;51.218;6.786;2023-02-01T02:51:05;9.10;99.90
10583;DHT22;33679;51.218;6.786;2023-02-01T02:54:05;9.10;99.90
10583;DHT22;33679;51.218;6.786;2023-02-01T02:56:58;9.10;99.90
10583;DHT22;33679;51.218;6.786;2023-02-01T02:59:51;9.00;99.90
10583;DHT22;33679;51.218;6.786;2023-02-01T03:02:42;9.00;99.90
10583;DHT22;33679;51.218;6.786;2023-02-01T03:05:33;9.00;99.90
10583;DHT22;33679;51.218;6.786;2023-02-01T03:08:13;8.90;99.90
10583;DHT22;33679;51.218;6.786;2023-02-01T03:10:56;8.90;99.90
10583;DHT22;33679;51.218;6.786;2023-02-01T03:13:36;9.00;99.90
10583;DHT22;33679;51.218;6.786;2023-02-01T03:16:14;9.00;99.90
10583;DHT22;33679;51.218;6.786;2023-02-01T03:18:50;9.00;99.90
10583;DHT22;33679;51.218;6.786;2023-02-01T03:21:26;9.00;99.90
10583;DHT22;33679;51.218;6.786;2023-02-01T03:24:05;9.10;99.90
10583;DHT22;33679;51.218;6.786;2023-02-01T03:26:43;9.10;99.90
10583;DHT22;33679;51.218;6.786;2023-02-01T03:29:19;9.10;99.90
10583;DHT22;33679;51.218;6.786;2023-02-01T03:31:53;9.20;99.90
10583;DHT22;33679;51.218;6.786;2023-02-01T03:34:28;9.20;99.90
10583;DHT22;33679;51.218;6.786;2023-02-01T03:37:03;9.20;99.90
10583;DHT22;33679;51.218;6.786;2023-02-01T03:39:44;9.20;99.90
10583;DHT22;33679;51.218;6.786;2023-02-01T03:42:21;9.20;99.90
10583;DHT22;33679;51.218;6.786;2023-02-01T03:45:00;9.10;99.90
10583;DHT22;33679;51.218;6.786;2023-02-01T03:47:36;9.10;99.90
10583;DHT22;33679;51.218;6.786;2023-02-01T03:50:12;9.10;99.90
10583;DHT22;33679;51.218;6.786;2023-02-01T03:52:50;9.10;99.90
10583;DHT22;33679;51.218;6.786;2023-02-01T03:55:26;9.20;99.90
10583;DHT22;33679;51.218;6.786;2023-02-01T03:58:04;9.20;99.90
10583;DHT22;33679;51.218;6.786;2023-02-01T04:00:40;9.30;99.90
10583;DHT22;33679;51.218;6.786;2023-02-01T04:03:13;9.30;99.90
10583;DHT22;33679;51.218;6.786;2023-02-01T04:05:45;9.30;99.90
10583;DHT22;33679;51.218;6.786;2023-02-01T04:08:18;9.40;99.90
10583;DHT22;33679;51.218;6.786;2023-02-01T04:10:52;9.30;99.90
10583;DHT22;33679;51.218;6.786;2023-02-01T04:13:24;9.40;99.90
10583;DHT22;33679;51.218;6.786;2023-02-01T04:15:57;9.30;99.90
10583;DHT22;33679;51.218;6.786;2023-02-01T04:18:29;9.30;99.90
10583;DHT22;33679;51.218;6.786;2023-02-01T04:21:02;9.30;99.90
10583;DHT22;33679;51.218;6.786;2023-02-01T04:23:35;9.30;99.90
10583;DHT22;33679;51.218;6.786;2023-02-01T04:26:09;9.30;99.90
10583;DHT22;33679;51.218;6.786;2023-02-01T04:28:41;9.30;99.90
10583;DHT22;33679;51.218;6.786;2023-02-01T04:31:14;9.30;99.90
10583;DHT22;33679;51.218;6.786;2023-02-01T04:33:46;9.20;99.90
10583;DHT22;33679;51.218;6.786;2023-02-01T04:36:18;9.20;99.90
10583;DHT22;33679;51.218;6.786;2023-02-01T04:38:52;9.10;99.90
10583;DHT22;33679;51.218;6.786;2023-02-01T04:41:26;9.10;99.90
10583;DHT22;33679;51.218;6.786;2023-02-01T04:43:59;9.10;99.90
10583;DHT22;33679;51.218;6.786;2023-02-01T04:46:31;9.00;99.90
10583;DHT22;33679;51.218;6.786;2023-02-01T04:49:04;9.00;99.90
10583;DHT22;33679;51.218;6.786;2023-02-01T04:51:37;9.00;99.90
10583;DHT22;33679;51.218;6.786;2023-02-01T04:54:10;9.00;99.90
10583;DHT22;33679;51.218;6.786;2023-02-01T04:56:44;8.90;99.90
10583;DHT22;33679;51.218;6.786;2023-02-01T04:59:18;8.90;99.90
10583;DHT22;33679;51.218;6.786;2023-02-01T05:01:51;8.90;99.90
10583;DHT22;33679;51.218;6.786;2023-02-01T05:04:25;8.80;99.90
10583;DHT22;33679;51.218;6.786;2023-02-01T05:06:57;8.80;99.90
10583;DHT22;33679;51.218;6.786;2023-02-01T05:09:30;8.80;99.90
10583;DHT22;33679;51.218;6.786;2023-02-01T05:12:05;8.80;99.90
10583;DHT22;33679;51.218;6.786;2023-02-01T05:14:55;8.90;99.90
10583;DHT22;33679;51.218;6.786;2023-02-01T05:17:28;8.90;99.90
10583;DHT22;33679;51.218;6.786;2023-02-01T05:20:02;9.00;99.90
10583;DHT22;33679;51.218;6.786;2023-02-01T05:22:37;8.90;99.90
10583;DHT22;33679;51.218;6.786;2023-02-01T05:25:12;8.90;99.90
10583;DHT22;33679;51.218;6.786;2023-02-01T05:27:45;8.90;99.90
10583;DHT22;33679;51.218;6.786;2023-02-01T05:30:18;8.90;99.90
10583;DHT22;33679;51.218;6.786;2023-02-01T05:32:50;8.90;99.90
10583;DHT22;33679;51.218;6.786;2023-02-01T05:35:25;8.90;99.90
10583;DHT22;33679;51.218;6.786;2023-02-01T05:37:58;8.90;99.90
10583;DHT22;33679;51.218;6.786;2023-02-01T05:40:30;8.90;99.90
10583;DHT22;33679;51.218;6.786;2023-02-01T05:43:04;8.90;99.90
10583;DHT22;33679;51.218;6.786;2023-02-01T05:45:37;8.90;99.90
10583;DHT22;33679;51.218;6.786;2023-02-01T05:48:09;8.90;99.90
10583;DHT22;33679;51.218;6.786;2023-02-01T05:50:43;8.90;99.90
10583;DHT22;33679;51.218;6.786;2023-02-01T05:53:15;8.90;99.90
10583;DHT22;33679;51.218;6.786;2023-02-01T05:55:50;8.80;99.90
10583;DHT22;33679;51.218;6.786;2023-02-01T05:58:26;8.80;99.90
10583;DHT22;33679;51.218;6.786;2023-02-01T06:00:59;8.80;99.90
10583;DHT22;33679;51.218;6.786;2023-02-01T06:03:34;8.80;99.90
10583;DHT22;33679;51.218;6.786;2023-02-01T06:06:06;8.80;99.90
10583;DHT22;33679;51.218;6.786;2023-02-01T06:08:39;8.70;99.90
10583;DHT22;33679;51.218;6.786;2023-02-01T06:11:12;8.70;99.90
10583;DHT22;33679;51.218;6.786;2023-02-01T06:13:48;8.70;99.90
10583;DHT22;33679;51.218;6.786;2023-02-01T06:16:22;8.70;99.90
10583;DHT22;33679;51.218;6.786;2023-02-01T06:18:58;8.70;99.90
10583;DHT22;33679;51.218;6.786;2023-02-01T06:21:30;8.70;99.90
10583;DHT22;33679;51.218;6.786;2023-02-01T06:24:04;8.70;99.90
10583;DHT22;33679;51.218;6.786;2023-02-01T06:26:37;8.70;99.90
10583;DHT22;33679;51.218;6.786;2023-02-01T06:29:11;8.70;99.90
10583;DHT22;33679;51.218;6.786;2023-02-01T06:31:44;8.70;99.90
10583;DHT22;33679;51.218;6.786;2023-02-01T06:34:16;8.80;99.90
10583;DHT22;33679;51.218;6.786;2023-02-01T06:36:51;8.80;99.90
10583;DHT22;33679;51.218;6.786;2023-02-01T06:39:25;8.80;99.90
10583;DHT22;33679;51.218;6.786;2023-02-01T06:41:59;8.90;99.90
10583;DHT22;33679;51.218;6.786;2023-02-01T06:44:33;8.90;99.90
10583;DHT22;33679;51.218;6.786;2023-02-01T06:47:08;9.00;99.90
10583;DHT22;33679;51.218;6.786;2023-02-01T06:49:50;9.00;99.90
10583;DHT22;33679;51.218;6.786;2023-02-01T06:52:23;9.00;99.90
10583;DHT22;33679;51.218;6.786;2023-02-01T06:54:58;9.00;99.90
10583;DHT22;33679;51.218;6.786;2023-02-01T06:57:30;9.00;99.90
10583;DHT22;33679;51.218;6.786;2023-02-01T07:00:09;9.10;99.90
10583;DHT22;33679;51.218;6.786;2023-02-01T07:02:41;9.10;99.90
10583;DHT22;33679;51.218;6.786;2023-02-01T07:05:14;9.20;99.90
10583;DHT22;33679;51.218;6.786;2023-02-01T07:07:47;9.10;99.90
10583;DHT22;33679;51.218;6.786;2023-02-01T07:10:19;9.20;99.90
10583;DHT22;33679;51.218;6.786;2023-02-01T07:12:56;9.20;99.90
10583;DHT22;33679;51.218;6.786;2023-02-01T07:15:33;9.20;99.90
10583;DHT22;33679;51.218;6.786;2023-02-01T07:18:08;9.20;99.90
10583;DHT22;33679;51.218;6.786;2023-02-01T07:20:41;9.20;99.90
10583;DHT22;33679;51.218;6.786;2023-02-01T07:23:13;9.20;99.90
10583;DHT22;33679;51.218;6.786;2023-02-01T07:25:46;9.20;99.90
10583;DHT22;33679;51.218;6.786;2023-02-01T07:28:22;9.20;99.90
10583;DHT22;33679;51.218;6.786;2023-02-01T07:31:02;9.20;99.90
10583;DHT22;33679;51.218;6.786;2023-02-01T07:33:35;9.20;99.90
10583;DHT22;33679;51.218;6.786;2023-02-01T07:36:11;9.10;99.90
10583;DHT22;33679;51.218;6.786;2023-02-01T07:38:46;9.10;99.90
10583;DHT22;33679;51.218;6.786;2023-02-01T07:41:19;9.10;99.90
10583;DHT22;33679;51.218;6.786;2023-02-01T07:43:54;9.10;99.90
10583;DHT22;33679;51.218;6.786;2023-02-01T07:46:30;9.10;99.90
10583;DHT22;33679;51.218;6.786;2023-02-01T07:49:02;9.20;99.90
10583;DHT22;33679;51.218;6.786;2023-02-01T07:51:35;9.20;99.90
10583;DHT22;33679;51.218;6.786;2023-02-01T07:54:08;9.20;99.90
10583;DHT22;33679;51.218;6.786;2023-02-01T07:56:40;9.20;99.90
10583;DHT22;33679;51.218;6.786;2023-02-01T07:59:14;9.30;99.90
10583;DHT22;33679;51.218;6.786;2023-02-01T08:01:51;9.30;99.90
10583;DHT22;33679;51.218;6.786;2023-02-01T08:04:25;9.30;99.90
10583;DHT22;33679;51.218;6.786;2023-02-01T08:06:59;9.30;99.90
10583;DHT22;33679;51.218;6.786;2023-02-01T08:09:32;9.40;99.90
10583;DHT22;33679;51.218;6.786;2023-02-01T08:12:04;9.30;99.90
10583;DHT22;33679;51.218;6.786;2023-02-01T08:14:55;9.40;99.90
10583;DHT22;33679;51.218;6.786;2023-02-01T08:17:29;9.30;99.90
10583;DHT22;33679;51.218;6.786;2023-02-01T08:20:02;9.30;99.90
10583;DHT22;33679;51.218;6.786;2023-02-01T08:22:50;9.30;99.90
10583;DHT22;33679;51.218;6.786;2023-02-01T08:25:24;9.30;99.90
10583;DHT22;33679;51.218;6.786;2023-02-01T08:27:59;9.30;99.90
10583;DHT22;33679;51.218;6.786;2023-02-01T08:30:37;9.40;99.90
10583;DHT22;33679;51.218;6.786;2023-02-01T08:33:20;9.40;99.90
10583;DHT22;33679;51.218;6.786;2023-02-01T08:35:53;9.40;99.90
10583;DHT22;33679;51.218;6.786;2023-02-01T08:38:28;9.40;99.90
10583;DHT22;33679;51.218;6.786;2023-02-01T08:41:06;9.40;99.90
10583;DHT22;33679;51.218;6.786;2023-02-01T08:43:39;9.40;99.90
10583;DHT22;33679;51.218;6.786;2023-02-01T08:46:12;9.40;99.90
10583;DHT22;33679;51.218;6.786;2023-02-01T08:48:47;9.40;99.90
10583;DHT22;33679;51.218;6.786;2023-02-01T08:51:21;9.50;99.90
10583;DHT22;33679;51.218;6.786;2023-02-01T08:53:54;9.50;99.90
10583;DHT22;33679;51.218;6.786;2023-02-01T08:56:27;9.50;99.90
10583;DHT22;33679;51.218;6.786;2023-02-01T08:59:27;9.60;99.90
10583;DHT22;33679;51.218;6.786;2023-02-01T09:02:19;9.60;99.90
10583;DHT22;33679;51.218;6.786;2023-02-01T09:04:55;9.60;99.90
10583;DHT22;33679;51.218;6.786;2023-02-01T09:07:28;9.60;99.90
10583;DHT22;33679;51.218;6.786;2023-02-01T09:10:03;9.70;99.90
10583;DHT22;33679;51.218;6.786;2023-02-01T09:12:36;9.70;99.90
10583;DHT22;33679;51.218;6.786;2023-02-01T09:15:09;9.70;99.90
10583;DHT22;33679;51.218;6.786;2023-02-01T09:17:41;9.80;99.90
10583;DHT22;33679;51.218;6.786;2023-02-01T09:20:16;9.70;99.90
10583;DHT22;33679;51.218;6.786;2023-02-01T09:22:51;9.70;99.90
10583;DHT22;33679;51.218;6.786;2023-02-01T09:25:26;9.70;99.90
10583;DHT22;33679;51.218;6.786;2023-02-01T09:28:01;9.80;99.90
10583;DHT22;33679;51.218;6.786;2023-02-01T09:30:40;9.70;99.90
10583;DHT22;33679;51.218;6.786;2023-02-01T09:33:13;9.80;99.90
10583;DHT22;33679;51.218;6.786;2023-02-01T09:35:46;10.00;99.90
10583;DHT22;33679;51.218;6.786;2023-02-01T09:38:19;10.00;99.90
10583;DHT22;33679;51.218;6.786;2023-02-01T09:40:52;9.90;99.90
10583;DHT22;33679;51.218;6.786;2023-02-01T09:43:37;9.90;99.90
10583;DHT22;33679;51.218;6.786;2023-02-01T09:46:20;9.90;99.90
10583;DHT22;33679;51.218;6.786;2023-02-01T09:48:55;9.90;99.90
10583;DHT22;33679;51.218;6.786;2023-02-01T09:51:35;9.90;99.90
10583;DHT22;33679;51.218;6.786;2023-02-01T09:54:12;9.80;99.90
10583;DHT22;33679;51.218;6.786;2023-02-01T09:56:49;9.80;99.90
10583;DHT22;33679;51.218;6.786;2023-02-01T09:59:33;9.80;99.90
10583;DHT22;33679;51.218;6.786;2023-02-01T10:02:13;9.80;99.90
10583;DHT22;33679;51.218;6.786;2023-02-01T10:04:50;9.80;99.90
10583;DHT22;33679;51.218;6.786;2023-02-01T10:07:31;9.80;99.90
10583;DHT22;33679;51.218;6.786;2023-02-01T10:10:11;9.80;99.90
10583;DHT22;33679;51.218;6.786;2023-02-01T10:13:04;9.80;99.90
10583;DHT22;33679;51.218;6.786;2023-02-01T10:15:51;9.90;99.90
10583;DHT22;33679;51.218;6.786;2023-02-01T10:18:38;10.00;99.90
10583;DHT22;33679;51.218;6.786;2023-02-01T10:21:24;9.90;99.90
10583;DHT22;33679;51.218;6.786;2023-02-01T10:24:22;9.90;99.90
10583;DHT22;33679;51.218;6.786;2023-02-01T10:27:01;10.00;99.90
10583;DHT22;33679;51.218;6.786;2023-02-01T10:29:38;9.90;99.90
10583;DHT22;33679;51.218;6.786;2023-02-01T10:32:16;10.00;99.90
10583;DHT22;33679;51.218;6.786;2023-02-01T10:34:55;10.10;99.90
10583;DHT22;33679;51.218;6.786;2023-02-01T10:37:31;10.10;99.90
10583;DHT22;33679;51.218;6.786;2023-02-01T10:40:15;10.10;99.90
10583;DHT22;33679;51.218;6.786;2023-02-01T10:42:48;10.20;99.90
10583;DHT22;33679;51.218;6.786;2023-02-01T10:45:25;10.30;99.90
10583;DHT22;33679;51.218;6.786;2023-02-01T10:48:02;10.40;99.90
10583;DHT22;33679;51.218;6.786;2023-02-01T10:50:38;10.30;99.90
10583;DHT22;33679;51.218;6.786;2023-02-01T10:53:14;10.30;99.90
10583;DHT22;33679;51.218;6.786;2023-02-01T10:55:51;10.20;99.90
10583;DHT22;33679;51.218;6.786;2023-02-01T10:58:28;10.20;99.90
10583;DHT22;33679;51.218;6.786;2023-02-01T11:01:04;10.20;99.90
10583;DHT22;33679;51.218;6.786;2023-02-01T11:03:41;10.20;99.90
10583;DHT22;33679;51.218;6.786;2023-02-01T11:06:29;10.20;99.90
10583;DHT22;33679;51.218;6.786;2023-02-01T11:09:11;10.20;99.90
10583;DHT22;33679;51.218;6.786;2023-02-01T11:11:57;10.20;99.90
10583;DHT22;33679;51.218;6.786;2023-02-01T11:14:38;10.20;99.90
10583;DHT22;33679;51.218;6.786;2023-02-01T11:17:21;10.20;99.90
10583;DHT22;33679;51.218;6.786;2023-02-01T11:19:58;10.30;99.90
10583;DHT22;33679;51.218;6.786;2023-02-01T11:22:31;10.30;99.90
10583;DHT22;33679;51.218;6.786;2023-02-01T11:25:09;10.30;99.90
10583;DHT22;33679;51.218;6.786;2023-02-01T11:27:48;10.30;99.90
10583;DHT22;33679;51.218;6.786;2023-02-01T11:30:31;10.30;99.90
10583;DHT22;33679;51.218;6.786;2023-02-01T11:33:05;10.30;99.90
10583;DHT22;33679;51.218;6.786;2023-02-01T11:35:40;10.30;99.90
10583;DHT22;33679;51.218;6.786;2023-02-01T11:38:21;10.30;99.90
10583;DHT22;33679;51.218;6.786;2023-02-01T11:40:55;10.30;99.90
10583;DHT22;33679;51.218;6.786;2023-02-01T11:43:54;10.40;99.90
10583;DHT22;33679;51.218;6.786;2023-02-01T11:46:29;10.30;99.90
10583;DHT22;33679;51.218;6.786;2023-02-01T11:49:20;10.30;99.90
10583;DHT22;33679;51.218;6.786;2023-02-01T11:52:24;10.40;99.90
10583;DHT22;33679;51.218;6.786;2023-02-01T11:55:13;10.40;99.90
10583;DHT22;33679;51.218;6.786;2023-02-01T11:58:06;10.40;99.90
10583;DHT22;33679;51.218;6.786;2023-02-01T12:01:03;10.40;99.90
10583;DHT22;33679;51.218;6.786;2023-02-01T12:04:08;10.40;99.90
10583;DHT22;33679;51.218;6.786;2023-02-01T12:06:51;10.40;99.90
10583;DHT22;33679;51.218;6.786;2023-02-01T12:09:43;10.40;99.90
10583;DHT22;33679;51.218;6.786;2023-02-01T12:12:26;10.50;99.90
10583;DHT22;33679;51.218;6.786;2023-02-01T12:15:31;10.50;99.90
10583;DHT22;33679;51.218;6.786;2023-02-01T12:21:42;10.40;99.90
10583;DHT22;33679;51.218;6.786;2023-02-01T12:24:46;10.50;99.90
10583;DHT22;33679;51.218;6.786;2023-02-01T12:28:00;10.50;99.90
10583;DHT22;33679;51.218;6.786;2023-02-01T12:33:58;10.40;99.90
10583;DHT22;33679;51.218;6.786;2023-02-01T12:36:45;10.40;99.90
10583;DHT22;33679;51.218;6.786;2023-02-01T12:39:23;10.40;99.90
10583;DHT22;33679;51.218;6.786;2023-02-01T12:42:01;10.30;99.90
10583;DHT22;33679;51.218;6.786;2023-02-01T12:44:47;10.30;99.90
10583;DHT22;33679;51.218;6.786;2023-02-01T12:47:33;10.30;99.90
10583;DHT22;33679;51.218;6.786;2023-02-01T12:50:16;10.30;99.90
10583;DHT22;33679;51.218;6.786;2023-02-01T12:52:55;10.30;99.90
10583;DHT22;33679;51.218;6.786;2023-02-01T12:55:35;10.30;99.90
10583;DHT22;33679;51.218;6.786;2023-02-01T12:58:15;10.30;99.90
10583;DHT22;33679;51.218;6.786;2023-02-01T13:00:52;10.40;99.90
10583;DHT22;33679;51.218;6.786;2023-02-01T13:03:32;10.30;99.90
10583;DHT22;33679;51.218;6.786;2023-02-01T13:06:09;10.40;99.90
10583;DHT22;33679;51.218;6.786;2023-02-01T13:08:48;10.40;99.90
10583;DHT22;33679;51.218;6.786;2023-02-01T13:11:26;10.40;99.90
10583;DHT22;33679;51.218;6.786;2023-02-01T13:14:02;10.40;99.90
10583;DHT22;33679;51.218;6.786;2023-02-01T13:16:41;10.40;99.90
10583;DHT22;33679;51.218;6.786;2023-02-01T13:19:20;10.40;99.90
10583;DHT22;33679;51.218;6.786;2023-02-01T13:21:57;10.50;99.90
10583;DHT22;33679;51.218;6.786;2023-02-01T13:24:40;10.60;99.90
10583;DHT22;33679;51.218;6.786;2023-02-01T13:27:19;10.60;99.90
10583;DHT22;33679;51.218;6.786;2023-02-01T13:29:58;10.60;99.90
10583;DHT22;33679;51.218;6.786;2023-02-01T13:36:02;10.60;99.90
10583;DHT22;33679;51.218;6.786;2023-02-01T13:41:52;10.70;99.90
10583;DHT22;33679;51.218;6.786;2023-02-01T13:44:30;10.70;99.90
10583;DHT22;33679;51.218;6.786;2023-02-01T13:47:13;10.80;99.90
10583;DHT22;33679;51.218;6.786;2023-02-01T13:49:51;10.70;99.90
10583;DHT22;33679;51.218;6.786;2023-02-01T13:52:34;10.70;99.90
10583;DHT22;33679;51.218;6.786;2023-02-01T13:55:26;10.70;99.90
10583;DHT22;33679;51.218;6.786;2023-02-01T13:58:17;10.80;99.90
10583;DHT22;33679;51.218;6.786;2023-02-01T14:00:50;10.80;99.90
10583;DHT22;33679;51.218;6.786;2023-02-01T14:03:44;10.80;99.90
10583;DHT22;33679;51.218;6.786;2023-02-01T14:06:37;10.70;99.90
10583;DHT22;33679;51.218;6.786;2023-02-01T14:09:14;10.80;99.90
10583;DHT22;33679;51.218;6.786;2023-02-01T14:11:50;10.90;99.90
10583;DHT22;33679;51.218;6.786;2023-02-01T14:17:34;10.80;99.90
10583;DHT22;33679;51.218;6.786;2023-02-01T14:20:39;10.80;99.90
10583;DHT22;33679;51.218;6.786;2023-02-01T14:23:29;10.90;99.90
10583;DHT22;33679;51.218;6.786;2023-02-01T14:26:26;10.80;99.90
10583;DHT22;33679;51.218;6.786;2023-02-01T14:29:03;10.80;99.90
10583;DHT22;33679;51.218;6.786;2023-02-01T14:31:58;10.80;99.90
10583;DHT22;33679;51.218;6.786;2023-02-01T14:34:51;10.80;99.90
10583;DHT22;33679;51.218;6.786;2023-02-01T14:37:30;10.80;99.90
10583;DHT22;33679;51.218;6.786;2023-02-01T14:40:16;10.80;99.90
10583;DHT22;33679;51.218;6.786;2023-02-01T14:42:50;10.80;99.90
10583;DHT22;33679;51.218;6.786;2023-02-01T14:45:47;10.90;99.90
10583;DHT22;33679;51.218;6.786;2023-02-01T14:48:43;10.80;99.90
10583;DHT22;33679;51.218;6.786;2023-02-01T14:51:19;10.80;99.90
10583;DHT22;33679;51.218;6.786;2023-02-01T14:53:55;10.80;99.90
10583;DHT22;33679;51.218;6.786;2023-02-01T14:56:36;10.90;99.90
10583;DHT22;33679;51.218;6.786;2023-02-01T14:59:13;10.80;99.90
10583;DHT22;33679;51.218;6.786;2023-02-01T15:01:50;10.90;99.90
10583;DHT22;33679;51.218;6.786;2023-02-01T15:04:26;10.90;99.90
10583;DHT22;33679;51.218;6.786;2023-02-01T15:07:07;11.00;99.90
10583;DHT22;33679;51.218;6.786;2023-02-01T15:09:56;11.00;99.90
10583;DHT22;33679;51.218;6.786;2023-02-01T15:13:25;11.00;99.90
10583;DHT22;33679;51.218;6.786;2023-02-01T15:16:13;11.00;99.90
10583;DHT22;33679;51.218;6.786;2023-02-01T15:18:46;11.00;99.90
10583;DHT22;33679;51.218;6.786;2023-02-01T15:21:20;11.00;99.90
10583;DHT22;33679;51.218;6.786;2023-02-01T15:24:12;10.90;99.90
10583;DHT22;33679;51.218;6.786;2023-02-01T15:26:45;11.00;99.90
10583;DHT22;33679;51.218;6.786;2023-02-01T15:29:18;11.00;99.90
10583;DHT22;33679;51.218;6.786;2023-02-01T15:31:53;11.00;99.90
10583;DHT22;33679;51.218;6.786;2023-02-01T15:34:44;10.90;99.90
10583;DHT22;33679;51.218;6.786;2023-02-01T15:37:21;11.00;99.90
10583;DHT22;33679;51.218;6.786;2023-02-01T15:40:20;11.00;99.90
10583;DHT22;33679;51.218;6.786;2023-02-01T15:42:57;10.90;99.90
10583;DHT22;33679;51.218;6.786;2023-02-01T15:45:39;10.90;99.90
10583;DHT22;33679;51.218;6.786;2023-02-01T15:48:21;10.80;99.90
10583;DHT22;33679;51.218;6.786;2023-02-01T15:50:55;10.80;99.90
10583;DHT22;33679;51.218;6.786;2023-02-01T15:53:34;10.90;99.90
10583;DHT22;33679;51.218;6.786;2023-02-01T15:56:22;10.90;99.90
10583;DHT22;33679;51.218;6.786;2023-02-01T15:59:28;10.80;99.90
10583;DHT22;33679;51.218;6.786;2023-02-01T16:02:02;10.80;99.90
10583;DHT22;33679;51.218;6.786;2023-02-01T16:04:51;10.80;99.90
10583;DHT22;33679;51.218;6.786;2023-02-01T16:07:35;10.80;99.90
10583;DHT22;33679;51.218;6.786;2023-02-01T16:10:23;10.80;99.90
10583;DHT22;33679;51.218;6.786;2023-02-01T16:12:59;10.80;99.90
10583;DHT22;33679;51.218;6.786;2023-02-01T16:15:32;10.80;99.90
10583;DHT22;33679;51.218;6.786;2023-02-01T16:18:05;10.80;99.90
10583;DHT22;33679;51.218;6.786;2023-02-01T16:23:51;10.80;99.90
10583;DHT22;33679;51.218;6.786;2023-02-01T16:26:23;10.90;99.90
10583;DHT22;33679;51.218;6.786;2023-02-01T16:28:58;10.80;99.90
10583;DHT22;33679;51.218;6.786;2023-02-01T16:31:38;10.70;99.90
10583;DHT22;33679;51.218;6.786;2023-02-01T16:34:16;10.70;99.90
10583;DHT22;33679;51.218;6.786;2023-02-01T16:37:03;10.80;99.90
10583;DHT22;33679;51.218;6.786;2023-02-01T16:39:39;10.70;99.90
10583;DHT22;33679;51.218;6.786;2023-02-01T16:42:13;10.70;99.90
10583;DHT22;33679;51.218;6.786;2023-02-01T16:44:49;10.80;99.90
10583;DHT22;33679;51.218;6.786;2023-02-01T16:47:24;10.80;99.90
10583;DHT22;33679;51.218;6.786;2023-02-01T16:50:16;10.70;99.90
10583;DHT22;33679;51.218;6.786;2023-02-01T16:52:49;10.70;99.90
10583;DHT22;33679;51.218;6.786;2023-02-01T16:55:23;10.80;99.90
10583;DHT22;33679;51.218;6.786;2023-02-01T16:57:57;10.80;99.90
10583;DHT22;33679;51.218;6.786;2023-02-01T17:00:30;10.80;99.90
10583;DHT22;33679;51.218;6.786;2023-02-01T17:03:08;10.80;99.90
10583;DHT22;33679;51.218;6.786;2023-02-01T17:05:41;10.70;99.90
10583;DHT22;33679;51.218;6.786;2023-02-01T17:08:18;10.70;99.90
10583;DHT22;33679;51.218;6.786;2023-02-01T17:10:58;10.80;99.90
10583;DHT22;33679;51.218;6.786;2023-02-01T17:13:34;10.80;99.90
10583;DHT22;33679;51.218;6.786;2023-02-01T17:16:18;10.80;99.90
10583;DHT22;33679;51.218;6.786;2023-02-01T17:18:56;10.80;99.90
10583;DHT22;33679;51.218;6.786;2023-02-01T17:21:38;10.70;99.90
10583;DHT22;33679;51.218;6.786;2023-02-01T17:24:13;10.70;99.90
10583;DHT22;33679;51.218;6.786;2023-02-01T17:26:52;10.70;99.90
10583;DHT22;33679;51.218;6.786;2023-02-01T17:29:28;10.70;99.90
10583;DHT22;33679;51.218;6.786;2023-02-01T17:32:02;10.80;99.90